createdAt,value
2018-09-06T00:02:24.225Z,23.44
2018-09-06T00:04:52.137Z,23.43
2018-09-06T00:07:18.903Z,23.38
2018-09-06T00:09:46.489Z,23.38
2018-09-06T00:12:13.222Z,23.43
2018-09-06T00:14:39.880Z,23.40
2018-09-06T00:17:07.390Z,23.39
2018-09-06T00:19:34.905Z,23.39
2018-09-06T00:22:02.725Z,23.41
2018-09-06T00:24:30.062Z,23.38
2018-09-06T00:26:57.643Z,23.41
2018-09-06T00:29:24.322Z,23.39
2018-09-06T00:31:52.970Z,23.45
2018-09-06T00:34:20.665Z,23.39
2018-09-06T00:36:47.370Z,23.39
2018-09-06T00:39:14.033Z,23.38
2018-09-06T00:41:40.690Z,23.38
2018-09-06T00:44:07.357Z,23.40
2018-09-06T00:46:34.006Z,23.40
2018-09-06T00:49:00.701Z,23.39
2018-09-06T00:51:27.386Z,23.37
2018-09-06T00:53:54.041Z,23.38
2018-09-06T00:56:21.971Z,23.38
2018-09-06T00:58:48.679Z,23.37
2018-09-06T01:01:15.352Z,23.37
2018-09-06T01:03:42.044Z,23.35
2018-09-06T01:06:08.753Z,23.35
2018-09-06T01:08:36.402Z,23.34
2018-09-06T01:11:03.053Z,23.36
2018-09-06T01:13:30.865Z,23.29
2018-09-06T01:15:57.518Z,23.32
2018-09-06T01:18:25.070Z,23.29
2018-09-06T01:20:52.717Z,23.31
2018-09-06T01:23:21.715Z,23.29
2018-09-06T01:25:48.880Z,23.32
2018-09-06T01:28:17.379Z,23.27
2018-09-06T01:30:44.887Z,23.28
2018-09-06T01:33:11.601Z,23.29
2018-09-06T01:35:42.869Z,23.34
2018-09-06T01:38:09.870Z,23.31
2018-09-06T01:40:36.562Z,23.29
2018-09-06T01:43:04.173Z,23.30
2018-09-06T01:45:31.055Z,23.27
2018-09-06T01:47:59.637Z,23.33
2018-09-06T01:50:26.313Z,23.33
2018-09-06T01:52:53.769Z,23.25
2018-09-06T01:55:21.342Z,23.30
2018-09-06T01:57:49.050Z,23.31
2018-09-06T02:00:16.645Z,23.26
2018-09-06T02:02:43.377Z,23.27
2018-09-06T02:05:10.061Z,23.33
2018-09-06T02:07:37.713Z,23.31
2018-09-06T02:10:05.396Z,23.28
2018-09-06T02:12:33.004Z,23.28
2018-09-06T02:15:00.628Z,23.31
2018-09-06T02:17:28.332Z,23.26
2018-09-06T02:19:56.660Z,23.25
2018-09-06T02:22:24.209Z,23.29
2018-09-06T02:24:51.671Z,23.27
2018-09-06T02:27:19.309Z,23.28
2018-09-06T02:29:46.010Z,23.22
2018-09-06T02:32:13.711Z,23.33
2018-09-06T02:34:40.469Z,23.26
2018-09-06T02:37:07.933Z,23.29
2018-09-06T02:39:35.069Z,23.26
2018-09-06T02:42:02.581Z,23.30
2018-09-06T02:44:30.524Z,23.26
2018-09-06T02:46:58.204Z,23.25
2018-09-06T02:49:30.656Z,23.29
2018-09-06T02:51:58.181Z,23.22
2018-09-06T02:54:24.857Z,23.25
2018-09-06T02:56:52.437Z,23.28
2018-09-06T02:59:19.098Z,23.23
2018-09-06T03:01:46.631Z,23.23
2018-09-06T03:04:13.338Z,23.19
2018-09-06T03:06:40.849Z,23.20
2018-09-06T03:09:08.424Z,23.24
2018-09-06T03:11:40.757Z,23.21
2018-09-06T03:14:08.909Z,23.19
2018-09-06T03:16:36.513Z,23.17
2018-09-06T03:19:04.133Z,23.16
2018-09-06T03:21:30.852Z,23.23
2018-09-06T03:23:57.572Z,23.18
2018-09-06T03:26:25.085Z,23.25
2018-09-06T03:28:52.540Z,23.18
2018-09-06T03:31:21.298Z,23.22
2018-09-06T03:33:47.960Z,23.24
2018-09-06T03:36:15.012Z,23.20
2018-09-06T03:38:41.704Z,23.21
2018-09-06T03:41:08.449Z,23.19
2018-09-06T03:43:35.149Z,23.24
2018-09-06T03:46:01.821Z,23.21
2018-09-06T03:48:29.140Z,23.15
2018-09-06T03:50:55.836Z,23.10
2018-09-06T03:53:22.519Z,23.16
2018-09-06T03:55:51.357Z,23.18
2018-09-06T03:58:20.678Z,23.15
2018-09-06T04:00:47.593Z,23.19
2018-09-06T04:03:15.178Z,23.17
2018-09-06T04:05:42.813Z,23.18
2018-09-06T04:08:10.401Z,23.16
2018-09-06T04:10:38.000Z,23.16
2018-09-06T04:13:05.601Z,23.16
2018-09-06T04:15:33.283Z,23.23
2018-09-06T04:18:00.871Z,23.18
2018-09-06T04:20:28.405Z,23.17
2018-09-06T04:22:57.510Z,23.16
2018-09-06T04:25:25.267Z,23.15
2018-09-06T04:27:52.809Z,23.19
2018-09-06T04:30:20.290Z,23.19
2018-09-06T04:32:47.908Z,23.18
2018-09-06T04:35:14.628Z,23.20
2018-09-06T04:37:41.308Z,23.18
2018-09-06T04:40:08.168Z,23.22
2018-09-06T04:42:35.697Z,23.22
2018-09-06T04:45:02.422Z,23.20
2018-09-06T04:47:30.291Z,23.22
2018-09-06T04:49:57.097Z,23.21
2018-09-06T04:52:24.125Z,23.21
2018-09-06T04:54:51.793Z,23.15
2018-09-06T04:57:18.581Z,23.20
2018-09-06T04:59:45.254Z,23.22
2018-09-06T05:02:13.015Z,23.20
2018-09-06T05:04:40.597Z,23.16
2018-09-06T05:07:08.261Z,23.17
2018-09-06T05:09:34.944Z,23.23
2018-09-06T05:12:02.431Z,23.23
2018-09-06T05:14:30.141Z,23.19
2018-09-06T05:16:56.796Z,23.18
2018-09-06T05:19:23.501Z,23.20
2018-09-06T05:21:51.151Z,23.24
2018-09-06T05:24:17.841Z,23.14
2018-09-06T05:26:45.619Z,23.24
2018-09-06T05:29:12.320Z,23.23
2018-09-06T05:31:39.773Z,23.19
2018-09-06T05:34:06.449Z,23.19
2018-09-06T05:36:33.153Z,23.29
2018-09-06T05:39:01.068Z,23.34
2018-09-06T05:41:27.727Z,23.40
2018-09-06T05:43:55.217Z,23.43
2018-09-06T05:46:22.769Z,23.48
2018-09-06T05:48:49.472Z,23.50
2018-09-06T05:51:16.141Z,23.54
2018-09-06T05:53:42.797Z,23.56
2018-09-06T05:56:09.532Z,23.57
2018-09-06T05:58:36.244Z,23.58
2018-09-06T06:01:02.904Z,23.61
2018-09-06T06:03:30.434Z,23.62
2018-09-06T06:05:57.093Z,23.59
2018-09-06T06:08:30.361Z,23.60
2018-09-06T06:10:57.014Z,23.52
2018-09-06T06:13:23.655Z,23.55
2018-09-06T06:15:51.822Z,23.59
2018-09-06T06:18:18.548Z,23.62
2018-09-06T06:20:45.201Z,23.66
2018-09-06T06:23:12.732Z,23.64
2018-09-06T06:25:40.416Z,23.64
2018-09-06T06:28:08.092Z,23.62
2018-09-06T06:30:35.669Z,23.63
2018-09-06T06:33:03.250Z,23.61
2018-09-06T06:35:30.922Z,23.64
2018-09-06T06:37:57.692Z,23.64
2018-09-06T06:40:24.590Z,23.64
2018-09-06T06:42:53.541Z,23.68
2018-09-06T06:45:21.504Z,23.64
2018-09-06T06:47:48.161Z,23.58
2018-09-06T06:50:14.860Z,23.68
2018-09-06T06:52:41.541Z,23.70
2018-09-06T06:55:08.185Z,23.68
2018-09-06T06:57:34.859Z,23.67
2018-09-06T07:00:02.502Z,23.68
2018-09-06T07:02:30.916Z,23.69
2018-09-06T07:04:57.576Z,23.69
2018-09-06T07:07:24.228Z,23.69
2018-09-06T07:09:51.956Z,23.71
2018-09-06T07:12:18.622Z,23.70
2018-09-06T07:14:45.324Z,23.69
2018-09-06T07:17:12.121Z,23.73
2018-09-06T07:19:38.994Z,23.70
2018-09-06T07:22:05.700Z,23.71
2018-09-06T07:24:32.345Z,23.72
2018-09-06T07:26:59.221Z,23.70
2018-09-06T07:29:25.869Z,23.69
2018-09-06T07:31:52.795Z,23.70
2018-09-06T07:34:19.449Z,23.73
2018-09-06T07:36:46.129Z,23.73
2018-09-06T07:39:13.021Z,23.72
2018-09-06T07:41:39.793Z,23.72
2018-09-06T07:44:06.615Z,23.71
2018-09-06T07:46:33.729Z,23.72
2018-09-06T07:49:00.389Z,23.71
2018-09-06T07:51:27.083Z,23.70
2018-09-06T07:53:54.610Z,23.69
2018-09-06T07:56:21.256Z,23.69
2018-09-06T07:58:47.912Z,23.70
2018-09-06T08:01:15.543Z,23.71
2018-09-06T08:03:43.044Z,23.72
2018-09-06T08:06:10.540Z,23.70
2018-09-06T08:08:38.134Z,23.71
2018-09-06T08:11:05.804Z,23.71
2018-09-06T08:13:32.477Z,23.70
2018-09-06T08:15:59.286Z,23.71
2018-09-06T08:18:25.924Z,23.75
2018-09-06T08:20:52.760Z,23.71
2018-09-06T08:23:20.267Z,23.72
2018-09-06T08:25:46.959Z,23.73
2018-09-06T08:28:14.418Z,23.74
2018-09-06T08:30:41.386Z,23.73
2018-09-06T08:33:08.031Z,23.74
2018-09-06T08:35:36.276Z,23.74
2018-09-06T08:38:03.208Z,23.73
2018-09-06T08:40:30.055Z,23.73
2018-09-06T08:42:56.717Z,23.73
2018-09-06T08:45:23.533Z,23.74
2018-09-06T08:47:51.191Z,23.73
2018-09-06T08:50:18.001Z,23.72
2018-09-06T08:52:45.697Z,23.71
2018-09-06T08:55:15.958Z,23.71
2018-09-06T08:57:42.981Z,23.75
2018-09-06T09:00:09.641Z,23.73
2018-09-06T09:02:37.246Z,23.73
2018-09-06T09:05:03.961Z,23.70
2018-09-06T09:07:30.669Z,23.72
2018-09-06T09:09:57.312Z,23.71
2018-09-06T09:12:23.951Z,23.73
2018-09-06T09:14:51.583Z,23.70
2018-09-06T09:17:18.277Z,23.71
2018-09-06T09:19:45.492Z,23.70
2018-09-06T09:22:13.432Z,23.70
2018-09-06T09:24:40.936Z,23.68
2018-09-06T09:27:07.576Z,23.69
2018-09-06T09:29:35.305Z,23.70
2018-09-06T09:32:02.009Z,23.71
2018-09-06T09:34:29.494Z,23.71
2018-09-06T09:36:57.137Z,23.68
2018-09-06T09:39:24.748Z,23.68
2018-09-06T09:41:51.389Z,23.68
2018-09-06T09:44:18.045Z,23.70
2018-09-06T09:49:13.700Z,23.69
2018-09-06T09:51:41.263Z,23.69
2018-09-06T09:54:08.816Z,23.69
2018-09-06T09:56:35.469Z,23.68
2018-09-06T09:59:02.185Z,23.67
2018-09-06T10:01:34.564Z,23.67
2018-09-06T10:04:06.808Z,23.66
2018-09-06T10:06:40.097Z,23.63
2018-09-06T10:09:15.587Z,23.64
2018-09-06T10:11:43.321Z,23.65
2018-09-06T10:14:10.796Z,23.63
2018-09-06T10:16:37.438Z,23.66
2018-09-06T10:19:04.084Z,23.65
2018-09-06T10:21:30.727Z,23.65
2018-09-06T10:23:57.377Z,23.65
2018-09-06T10:26:24.057Z,23.66
2018-09-06T10:28:51.845Z,23.68
2018-09-06T10:31:18.504Z,23.65
2018-09-06T10:33:45.889Z,23.65
2018-09-06T10:36:12.557Z,23.66
2018-09-06T10:38:39.199Z,23.67
2018-09-06T10:41:06.780Z,23.66
2018-09-06T10:43:33.433Z,23.65
2018-09-06T10:46:00.100Z,23.67
2018-09-06T10:48:26.749Z,23.67
2018-09-06T10:50:53.441Z,23.67
2018-09-06T10:53:22.037Z,23.68
2018-09-06T10:55:50.563Z,23.66
2018-09-06T10:58:17.432Z,23.64
2018-09-06T11:00:44.147Z,23.64
2018-09-06T11:03:11.644Z,23.66
2018-09-06T11:05:38.281Z,23.64
2018-09-06T11:08:05.920Z,23.62
2018-09-06T11:10:32.531Z,23.62
2018-09-06T11:12:59.992Z,23.63
2018-09-06T11:15:26.766Z,23.62
2018-09-06T11:17:53.407Z,23.64
2018-09-06T11:20:20.884Z,23.64
2018-09-06T11:22:47.608Z,23.65
2018-09-06T11:25:14.251Z,23.63
2018-09-06T11:27:40.969Z,23.60
2018-09-06T11:30:07.621Z,23.62
2018-09-06T11:32:34.267Z,23.63
2018-09-06T11:35:00.900Z,23.62
2018-09-06T11:37:27.617Z,23.61
2018-09-06T11:39:54.365Z,23.62
2018-09-06T11:42:21.876Z,23.63
2018-09-06T11:44:48.545Z,23.62
2018-09-06T11:47:17.740Z,23.60
2018-09-06T11:49:44.385Z,23.58
2018-09-06T11:52:12.088Z,23.59
2018-09-06T11:54:38.732Z,23.60
2018-09-06T11:57:05.407Z,23.61
2018-09-06T11:59:32.080Z,23.63
2018-09-06T12:01:58.784Z,23.61
2018-09-06T12:04:25.433Z,23.62
2018-09-06T12:06:52.078Z,23.62
2018-09-06T12:09:20.188Z,23.62
2018-09-06T12:11:46.861Z,23.60
2018-09-06T12:14:13.581Z,23.60
2018-09-06T12:16:41.316Z,23.59
2018-09-06T12:19:07.964Z,23.57
2018-09-06T12:21:34.633Z,23.61
2018-09-06T12:24:01.281Z,23.60
2018-09-06T12:26:27.950Z,23.60
2018-09-06T12:28:54.632Z,23.60
2018-09-06T12:31:22.141Z,23.61
2018-09-06T12:33:48.864Z,23.58
2018-09-06T12:36:16.624Z,23.61
2018-09-06T12:38:43.405Z,23.60
2018-09-06T12:41:10.133Z,23.60
2018-09-06T12:43:37.679Z,23.62
2018-09-06T12:46:04.315Z,23.57
2018-09-06T12:48:31.000Z,23.59
2018-09-06T12:50:58.522Z,23.61
2018-09-06T12:53:26.072Z,23.58
2018-09-06T12:55:54.338Z,23.62
2018-09-06T12:58:21.976Z,23.70
2018-09-06T13:00:51.982Z,23.74
2018-09-06T13:03:18.640Z,23.84
2018-09-06T13:05:46.031Z,23.92
2018-09-06T13:08:13.557Z,23.97
2018-09-06T13:10:40.224Z,24.02
2018-09-06T13:13:07.896Z,24.01
2018-09-06T13:15:35.552Z,24.01
2018-09-06T13:18:03.061Z,24.01
2018-09-06T13:20:30.645Z,24.03
2018-09-06T13:22:58.274Z,24.01
2018-09-06T13:25:25.925Z,24.02
2018-09-06T13:27:52.592Z,23.99
2018-09-06T13:30:19.265Z,24.01
2018-09-06T13:32:47.019Z,24.03
2018-09-06T13:35:14.632Z,23.99
2018-09-06T13:37:42.292Z,24.01
2018-09-06T13:40:09.829Z,24.00
2018-09-06T13:42:37.476Z,23.98
2018-09-06T13:45:04.136Z,23.98
2018-09-06T13:47:31.818Z,23.98
2018-09-06T13:49:59.405Z,23.99
2018-09-06T13:52:27.060Z,23.95
2018-09-06T13:54:54.737Z,23.94
2018-09-06T13:57:22.340Z,23.91
2018-09-06T13:59:50.505Z,23.92
2018-09-06T14:02:17.158Z,23.93
2018-09-06T14:04:44.693Z,23.91
2018-09-06T14:07:12.846Z,23.94
2018-09-06T14:09:40.383Z,23.95
2018-09-06T14:12:07.973Z,23.95
2018-09-06T14:14:35.448Z,23.92
2018-09-06T14:17:02.946Z,23.93
2018-09-06T14:19:30.532Z,23.91
2018-09-06T14:21:58.283Z,23.90
2018-09-06T14:24:25.792Z,23.91
2018-09-06T14:26:53.349Z,23.92
2018-09-06T14:29:21.885Z,23.90
2018-09-06T14:31:50.515Z,23.89
2018-09-06T14:34:18.229Z,23.90
2018-09-06T14:36:47.012Z,23.88
2018-09-06T14:39:13.729Z,23.89
2018-09-06T14:41:41.213Z,23.89
2018-09-06T14:44:08.762Z,23.88
2018-09-06T14:46:36.339Z,23.89
2018-09-06T14:49:03.922Z,23.87
2018-09-06T14:51:31.585Z,23.87
2018-09-06T14:53:58.269Z,23.88
2018-09-06T14:56:25.908Z,23.88
2018-09-06T14:58:53.500Z,23.86
2018-09-06T15:01:22.513Z,23.87
2018-09-06T15:03:49.169Z,23.87
2018-09-06T15:06:16.697Z,23.88
2018-09-06T15:08:43.520Z,23.87
2018-09-06T15:11:10.180Z,23.85
2018-09-06T15:13:37.758Z,23.90
2018-09-06T15:16:05.268Z,23.88
2018-09-06T15:18:32.795Z,23.85
2018-09-06T15:20:59.446Z,23.85
2018-09-06T15:23:26.149Z,23.84
2018-09-06T15:25:53.972Z,23.83
2018-09-06T15:28:21.556Z,23.84
2018-09-06T15:30:48.261Z,23.84
2018-09-06T15:33:16.582Z,23.83
2018-09-06T15:35:44.202Z,23.82
2018-09-06T15:38:11.740Z,23.82
2018-09-06T15:40:39.462Z,23.81
2018-09-06T15:43:06.254Z,23.82
2018-09-06T15:45:32.943Z,23.83
2018-09-06T15:47:59.621Z,23.84
2018-09-06T15:50:26.313Z,23.82
2018-09-06T15:52:53.992Z,23.82
2018-09-06T15:55:21.729Z,23.76
2018-09-06T15:57:48.429Z,23.78
2018-09-06T16:00:16.288Z,23.81
2018-09-06T16:02:43.152Z,23.76
2018-09-06T16:05:09.940Z,23.79
2018-09-06T16:07:37.557Z,23.76
2018-09-06T16:10:04.204Z,23.77
2018-09-06T16:12:31.784Z,23.80
2018-09-06T16:14:59.371Z,23.79
2018-09-06T16:17:26.148Z,23.78
2018-09-06T16:19:52.783Z,23.79
2018-09-06T16:22:19.429Z,23.80
2018-09-06T16:24:46.773Z,23.75
2018-09-06T16:27:13.429Z,23.77
2018-09-06T16:29:40.152Z,23.75
2018-09-06T16:32:06.805Z,23.78
2018-09-06T16:34:33.493Z,23.75
2018-09-06T16:37:00.368Z,23.76
2018-09-06T16:39:27.828Z,23.76
2018-09-06T16:41:54.477Z,23.75
2018-09-06T16:44:23.353Z,23.75
2018-09-06T16:46:51.167Z,23.75
2018-09-06T16:49:17.889Z,23.75
2018-09-06T16:51:45.840Z,23.76
2018-09-06T16:54:12.537Z,23.76
2018-09-06T16:56:40.043Z,23.74
2018-09-06T16:59:06.738Z,23.75
2018-09-06T17:01:33.409Z,23.74
2018-09-06T17:04:00.809Z,23.87
2018-09-06T17:06:28.473Z,23.81
2018-09-06T17:08:55.193Z,23.81
2018-09-06T17:11:21.853Z,23.78
2018-09-06T17:13:48.605Z,23.77
2018-09-06T17:16:15.364Z,23.76
2018-09-06T17:18:42.186Z,23.76
2018-09-06T17:21:08.896Z,23.75
2018-09-06T17:23:35.557Z,23.76
2018-09-06T17:26:02.306Z,23.76
2018-09-06T17:28:29.198Z,23.74
2018-09-06T17:30:55.949Z,23.72
2018-09-06T17:33:22.605Z,23.74
2018-09-06T17:35:49.284Z,23.73
2018-09-06T17:38:16.692Z,23.73
2018-09-06T17:40:43.726Z,23.71
2018-09-06T17:43:10.590Z,23.72
2018-09-06T17:45:37.342Z,23.72
2018-09-06T17:48:04.004Z,23.71
2018-09-06T17:50:30.741Z,23.69
2018-09-06T17:52:57.450Z,23.70
2018-09-06T17:55:24.237Z,23.70
2018-09-06T17:57:51.629Z,23.68
2018-09-06T18:00:18.281Z,23.68
2018-09-06T18:02:45.970Z,23.66
2018-09-06T18:05:12.609Z,23.66
2018-09-06T18:07:39.268Z,23.66
2018-09-06T18:10:06.037Z,23.67
2018-09-06T18:12:32.684Z,23.67
2018-09-06T18:14:59.568Z,23.64
2018-09-06T18:17:26.370Z,23.66
2018-09-06T18:19:53.090Z,23.67
2018-09-06T18:22:20.544Z,23.64
2018-09-06T18:24:48.130Z,23.63
2018-09-06T18:27:14.845Z,23.66
2018-09-06T18:29:41.505Z,23.65
2018-09-06T18:32:08.179Z,23.66
2018-09-06T18:34:34.877Z,23.65
2018-09-06T18:37:01.585Z,23.65
2018-09-06T18:39:28.269Z,23.64
2018-09-06T18:41:54.901Z,23.64
2018-09-06T18:44:21.585Z,23.60
2018-09-06T18:46:49.065Z,23.61
2018-09-06T18:49:17.605Z,23.63
2018-09-06T18:51:44.269Z,23.59
2018-09-06T18:54:11.054Z,23.63
2018-09-06T18:56:37.721Z,23.61
2018-09-06T18:59:04.357Z,23.60
2018-09-06T19:01:31.009Z,23.59
2018-09-06T19:03:57.839Z,23.60
2018-09-06T19:06:24.602Z,23.59
2018-09-06T19:08:51.820Z,23.59
2018-09-06T19:11:20.714Z,23.58
2018-09-06T19:13:47.525Z,23.57
2018-09-06T19:16:14.186Z,23.55
2018-09-06T19:18:40.874Z,23.54
2018-09-06T19:21:08.460Z,23.56
2018-09-06T19:23:35.112Z,23.54
2018-09-06T19:26:01.777Z,23.55
2018-09-06T19:28:28.617Z,23.60
2018-09-06T19:30:55.261Z,23.60
2018-09-06T19:33:21.945Z,23.56
2018-09-06T19:35:48.611Z,23.55
2018-09-06T19:38:15.849Z,23.55
2018-09-06T19:40:42.700Z,23.54
2018-09-06T19:43:09.469Z,23.54
2018-09-06T19:45:37.137Z,23.53
2018-09-06T19:48:04.753Z,23.51
2018-09-06T19:50:31.436Z,23.53
2018-09-06T19:52:58.110Z,23.57
2018-09-06T19:55:24.768Z,23.59
2018-09-06T19:57:52.312Z,23.57
2018-09-06T20:00:21.157Z,23.54
2018-09-06T20:02:47.860Z,23.54
2018-09-06T20:05:14.614Z,23.52
2018-09-06T20:07:41.325Z,23.57
2018-09-06T20:10:07.986Z,23.54
2018-09-06T20:12:34.873Z,23.53
2018-09-06T20:15:01.541Z,23.51
2018-09-06T20:17:28.536Z,23.54
2018-09-06T20:19:56.060Z,23.54
2018-09-06T20:22:23.608Z,23.51
2018-09-06T20:24:51.475Z,23.50
2018-09-06T20:27:18.147Z,23.47
2018-09-06T20:29:44.802Z,23.49
2018-09-06T20:32:11.452Z,23.53
2018-09-06T20:34:38.116Z,23.50
2018-09-06T20:37:04.906Z,23.52
2018-09-06T20:39:31.568Z,23.49
2018-09-06T20:41:58.259Z,23.48
2018-09-06T20:44:24.922Z,23.49
2018-09-06T20:46:51.580Z,23.49
2018-09-06T20:49:18.226Z,23.46
2018-09-06T20:51:44.882Z,23.46
2018-09-06T20:54:11.571Z,23.47
2018-09-06T20:56:38.306Z,23.42
2018-09-06T20:59:04.942Z,23.37
2018-09-06T21:01:31.691Z,23.38
2018-09-06T21:03:59.295Z,23.38
2018-09-06T21:06:26.036Z,23.38
2018-09-06T21:08:52.713Z,23.42
2018-09-06T21:11:19.354Z,23.35
2018-09-06T21:13:46.040Z,23.37
2018-09-06T21:16:12.855Z,23.37
2018-09-06T21:18:39.511Z,23.35
2018-09-06T21:21:06.175Z,23.37
2018-09-06T21:23:37.313Z,23.33
2018-09-06T21:26:03.984Z,23.28
2018-09-06T21:28:30.633Z,23.36
2018-09-06T21:30:58.218Z,23.32
2018-09-06T21:33:24.873Z,23.33
2018-09-06T21:35:52.733Z,23.28
2018-09-06T21:38:21.292Z,23.30
2018-09-06T21:40:47.940Z,23.29
2018-09-06T21:43:14.596Z,23.28
2018-09-06T21:45:41.237Z,23.32
2018-09-06T21:48:07.876Z,23.31
2018-09-06T21:50:34.537Z,23.27
2018-09-06T21:53:02.055Z,23.31
2018-09-06T21:55:29.626Z,23.31
2018-09-06T21:57:57.248Z,23.23
2018-09-06T22:00:23.898Z,23.29
2018-09-06T22:02:57.138Z,23.31
2018-09-06T22:05:23.798Z,23.25
2018-09-06T22:07:52.786Z,23.27
2018-09-06T22:10:22.295Z,23.23
2018-09-06T22:12:49.384Z,23.27
2018-09-06T22:15:16.081Z,23.25
2018-09-06T22:17:43.717Z,23.26
2018-09-06T22:20:10.356Z,23.25
2018-09-06T22:22:37.841Z,23.26
2018-09-06T22:25:05.396Z,23.31
2018-09-06T22:27:32.932Z,23.28
2018-09-06T22:29:59.598Z,23.24
2018-09-06T22:32:26.308Z,23.24
2018-09-06T22:34:52.960Z,23.24
2018-09-06T22:37:20.809Z,23.27
2018-09-06T22:39:47.496Z,23.24
2018-09-06T22:42:16.095Z,23.25
2018-09-06T22:44:42.783Z,23.28
2018-09-06T22:47:10.253Z,23.25
2018-09-06T22:49:36.902Z,23.25
2018-09-06T22:52:03.880Z,23.19
2018-09-06T22:54:30.540Z,23.25
2018-09-06T22:56:58.195Z,23.23
2018-09-06T22:59:24.872Z,23.27
2018-09-06T23:01:52.569Z,23.25
2018-09-06T23:04:21.281Z,23.23
2018-09-06T23:06:47.934Z,23.27
2018-09-06T23:09:15.693Z,23.24
2018-09-06T23:11:43.155Z,23.27
2018-09-06T23:14:09.789Z,23.24
2018-09-06T23:16:36.425Z,23.25
2018-09-06T23:19:03.069Z,23.28
2018-09-06T23:21:29.710Z,23.24
2018-09-06T23:23:56.396Z,23.25
2018-09-06T23:26:23.049Z,23.31
2018-09-06T23:28:50.393Z,23.28
2018-09-06T23:31:17.058Z,23.26
2018-09-06T23:33:43.719Z,23.31
2018-09-06T23:36:11.317Z,23.28
2018-09-06T23:38:38.930Z,23.19
2018-09-06T23:41:06.078Z,23.26
2018-09-06T23:43:33.522Z,23.22
2018-09-06T23:46:00.177Z,23.24
2018-09-06T23:48:28.067Z,23.25
2018-09-06T23:50:55.585Z,23.23
2018-09-06T23:53:22.499Z,23.24
2018-09-06T23:55:49.132Z,23.22
2018-09-06T23:58:17.420Z,23.23
